Time;durP1;ratioP1;P1;durP2;ratioP2;P2;SDS_P1;SDS_P2;PMS_P1;PMS_P2;Temp;Humidity;BMP_temperature;BMP_pressure;BME280_temperature;BME280_humidity;BME280_pressure;Samples;Min_cycle;Max_cycle;Signal;HPM_P1;HPM_P2
2022/11/25 00:01:21;;;;;;;20.95;3.85;;;;;;;7.20;91.06;100681.75;5137316;27;20051;-68
2022/11/25 00:03:49;;;;;;;30.50;4.18;;;;;;;7.23;90.45;100679.66;5137589;27;20073;-68
2022/11/25 00:06:18;;;;;;;19.75;3.88;;;;;;;7.19;91.45;100683.53;5135867;27;20039;-68
2022/11/25 00:08:47;;;;;;;18.90;3.65;;;;;;;7.22;91.40;100683.28;5137115;27;20043;-68
2022/11/25 00:11:14;;;;;;;20.05;3.67;;;;;;;7.23;91.01;100684.13;5118577;27;20047;-68
2022/11/25 00:13:42;;;;;;;18.48;3.85;;;;;;;7.22;91.24;100675.38;5136925;27;20039;-69
2022/11/25 00:16:14;;;;;;;17.25;3.75;;;;;;;7.22;91.14;100672.75;5136087;27;20051;-68
2022/11/25 00:18:47;;;;;;;28.52;5.25;;;;;;;7.34;91.39;100665.53;5136972;27;20399;-68
2022/11/25 00:21:17;;;;;;;23.13;3.53;;;;;;;7.32;91.11;100662.19;5136712;27;20054;-68
2022/11/25 00:23:58;;;;;;;25.60;4.30;;;;;;;7.37;91.28;100667.06;5136948;27;20039;-68
2022/11/25 00:26:26;;;;;;;25.25;3.60;;;;;;;7.41;90.71;100666.66;5136944;27;20118;-68
2022/11/25 00:28:53;;;;;;;19.48;3.45;;;;;;;7.35;91.35;100664.56;5136507;27;20046;-68
2022/11/25 00:31:24;;;;;;;23.45;3.65;;;;;;;7.39;91.14;100660.69;5136727;27;20046;-68
2022/11/25 00:33:51;;;;;;;19.73;3.80;;;;;;;7.39;90.64;100657.22;5136614;27;20051;-68
2022/11/25 00:36:21;;;;;;;17.88;3.63;;;;;;;7.28;91.46;100658.16;5136772;27;20118;-67
2022/11/25 00:38:54;;;;;;;17.48;3.90;;;;;;;7.25;91.05;100651.34;5136206;27;20050;-67
2022/11/25 00:44:41;;;;;;;19.58;3.35;;;;;;;7.32;90.89;100658.72;5136109;27;20055;-68
2022/11/25 00:46:57;;;;;;;18.95;3.50;;;;;;;7.39;90.74;100660.69;5136079;27;20045;-68
2022/11/25 00:49:26;;;;;;;18.10;3.53;;;;;;;7.37;91.31;100653.84;5136333;27;20039;-67
2022/11/25 00:51:53;;;;;;;14.98;4.60;;;;;;;7.34;91.58;100662.91;5136141;27;20082;-68
2022/11/25 00:54:20;;;;;;;27.88;4.10;;;;;;;7.30;91.32;100661.50;5136356;27;20046;-68
2022/11/25 00:56:48;;;;;;;21.10;4.03;;;;;;;7.27;91.30;100656.50;5117492;27;20431;-68
2022/11/25 00:59:15;;;;;;;29.15;4.55;;;;;;;7.31;91.38;100657.88;5136297;27;20047;-68
2022/11/25 01:01:41;;;;;;;24.23;4.40;;;;;;;7.29;91.56;100651.91;5135526;27;20066;-68
2022/11/25 01:04:09;;;;;;;15.10;3.47;;;;;;;7.36;91.36;100652.22;5136218;27;20127;-67
2022/11/25 01:06:37;;;;;;;18.17;3.85;;;;;;;7.44;91.14;100650.56;5116985;27;20131;-68
2022/11/25 01:09:05;;;;;;;23.30;3.85;;;;;;;7.41;91.68;100660.56;5135896;27;20484;-68
2022/11/25 01:11:32;;;;;;;20.55;3.75;;;;;;;7.43;91.00;100655.97;5135989;27;20051;-68
2022/11/25 01:13:59;;;;;;;20.25;4.57;;;;;;;7.47;91.50;100657.38;5135832;27;20051;-68
2022/11/25 01:16:28;;;;;;;26.17;4.03;;;;;;;7.48;91.33;100657.25;5135635;27;20035;-68
2022/11/25 01:18:54;;;;;;;20.75;4.15;;;;;;;7.53;90.84;100656.00;5127070;27;20066;-68
2022/11/25 01:21:25;;;;;;;20.02;4.03;;;;;;;7.48;90.82;100659.06;5088644;27;20604;-68
2022/11/25 01:23:52;;;;;;;28.85;5.72;;;;;;;7.46;91.78;100656.53;5135022;27;20392;-68
2022/11/25 01:26:21;;;;;;;14.75;3.83;;;;;;;7.55;90.85;100652.25;5135560;27;20047;-67
2022/11/25 01:28:51;;;;;;;18.70;4.03;;;;;;;7.60;91.02;100657.13;5116458;27;20408;-68
2022/11/25 01:31:21;;;;;;;23.98;4.70;;;;;;;7.63;91.50;100652.38;5134964;27;20043;-68
2022/11/25 01:33:54;;;;;;;24.63;4.40;;;;;;;7.64;90.37;100653.22;5135637;27;20043;-68
2022/11/25 01:36:21;;;;;;;24.75;4.43;;;;;;;7.60;91.18;100647.38;5135071;27;20035;-68
2022/11/25 01:38:56;;;;;;;21.17;4.25;;;;;;;7.63;91.03;100648.94;5135574;27;20051;-68
2022/11/25 01:41:26;;;;;;;22.17;4.32;;;;;;;7.72;91.07;100650.75;5135236;27;20043;-68
2022/11/25 01:44:17;;;;;;;22.15;4.70;;;;;;;7.75;90.88;100644.34;5135118;27;20107;-68
2022/11/25 01:47:10;;;;;;;21.77;4.17;;;;;;;7.63;91.24;100655.03;5134690;27;20047;-68
2022/11/25 01:50:08;;;;;;;18.38;3.72;;;;;;;7.68;91.80;100652.81;5135367;27;20061;-68
2022/11/25 01:52:40;;;;;;;28.23;4.65;;;;;;;7.71;91.64;100656.16;5135208;27;20126;-68
2022/11/25 01:55:13;;;;;;;15.40;3.63;;;;;;;7.71;91.28;100650.88;5135239;27;20058;-68
2022/11/25 01:57:44;;;;;;;17.55;3.60;;;;;;;7.69;91.40;100648.38;5135243;27;20039;-69
2022/11/25 02:00:12;;;;;;;17.98;3.78;;;;;;;7.68;91.80;100652.81;5134966;27;20050;-68
2022/11/25 02:02:48;;;;;;;23.20;4.68;;;;;;;7.71;92.00;100648.22;5134530;27;20482;-68
2022/11/25 02:05:25;;;;;;;21.02;4.10;;;;;;;7.83;91.96;100653.25;5134379;27;20047;-68
2022/11/25 02:07:56;;;;;;;16.95;4.13;;;;;;;7.74;92.23;100651.44;5134763;27;20047;-69
2022/11/25 02:10:26;;;;;;;21.50;3.88;;;;;;;7.75;91.97;100642.56;5134506;27;20049;-68
2022/11/25 02:12:53;;;;;;;24.45;4.03;;;;;;;7.83;92.03;100636.56;5134675;27;20049;-68
2022/11/25 02:15:20;;;;;;;24.15;4.43;;;;;;;7.89;91.77;100641.28;5116472;27;20039;-68
2022/11/25 02:17:48;;;;;;;19.40;4.47;;;;;;;7.86;91.88;100634.50;5134505;27;20039;-68
2022/11/25 02:20:19;;;;;;;24.08;4.82;;;;;;;7.89;91.92;100633.38;5134547;27;20500;-68
2022/11/25 02:23:02;;;;;;;22.77;4.93;;;;;;;7.88;91.98;100619.34;5134429;27;20047;-68
2022/11/25 02:25:38;;;;;;;19.48;4.13;;;;;;;7.90;92.02;100627.13;5134623;27;20641;-68
2022/11/25 02:28:15;;;;;;;23.13;4.45;;;;;;;7.94;91.99;100630.31;5117080;27;20039;-68
2022/11/25 02:30:43;;;;;;;22.13;4.65;;;;;;;8.05;91.97;100628.34;5134665;27;20557;-69
2022/11/25 02:33:11;;;;;;;17.98;4.72;;;;;;;7.95;91.97;100631.97;5134216;27;20051;-67
2022/11/25 02:35:53;;;;;;;20.63;4.22;;;;;;;7.98;92.04;100634.34;5134642;27;20070;-68
2022/11/25 02:38:23;;;;;;;;;;;;;;;8.00;91.87;100630.56;5134824;27;20062;-68
2022/11/25 02:41:06;;;;;;;19.42;4.38;;;;;;;8.05;91.83;100631.00;5134317;27;19948;-68
2022/11/25 02:43:33;;;;;;;18.98;3.83;;;;;;;8.05;91.77;100628.34;5134069;27;20089;-68
2022/11/25 02:46:05;;;;;;;17.92;4.28;;;;;;;8.04;91.97;100628.47;5134114;28;20043;-68
2022/11/25 02:48:35;;;;;;;18.08;3.92;;;;;;;8.02;91.30;100631.28;5134268;28;20039;-68
2022/11/25 02:51:25;;;;;;;21.55;4.32;;;;;;;8.07;92.13;100634.31;5118598;28;20035;-68
2022/11/25 02:53:52;;;;;;;20.17;4.53;;;;;;;8.16;91.85;100631.81;5134463;28;20053;-68
2022/11/25 02:56:23;;;;;;;17.45;3.97;;;;;;;8.20;91.35;100641.13;5134161;28;20043;-68
2022/11/25 02:58:51;;;;;;;23.85;4.60;;;;;;;8.29;90.64;100640.28;5134120;28;20035;-68
2022/11/25 03:01:18;;;;;;;19.33;4.13;;;;;;;8.12;91.61;100647.13;5133837;28;20100;-68
2022/11/25 03:03:47;;;;;;;17.50;4.22;;;;;;;8.13;91.53;100646.16;5133954;28;20412;-68
2022/11/25 03:06:15;;;;;;;21.35;4.82;;;;;;;8.18;91.17;100646.56;5133556;28;20074;-69
2022/11/25 03:08:42;;;;;;;24.77;4.43;;;;;;;8.26;90.71;100640.59;5133895;28;20043;-68
2022/11/25 03:11:11;;;;;;;19.98;3.88;;;;;;;8.12;91.05;100641.03;5134217;28;20059;-68
2022/11/25 03:13:38;;;;;;;21.35;4.15;;;;;;;8.15;91.43;100638.06;5133778;28;20446;-69
2022/11/25 03:16:05;;;;;;;18.13;4.40;;;;;;;8.21;91.18;100634.88;5133980;28;20047;-69
2022/11/25 03:18:32;;;;;;;20.30;4.03;;;;;;;8.25;91.26;100642.38;5132597;28;20100;-68
2022/11/25 03:20:59;;;;;;;24.05;4.55;;;;;;;8.28;91.02;100649.22;5115954;28;20047;-68
2022/11/25 03:23:26;;;;;;;22.08;4.20;;;;;;;8.15;91.46;100648.63;5133462;28;20456;-68
2022/11/25 03:25:53;;;;;;;16.48;4.50;;;;;;;8.21;91.27;100650.75;5133233;28;20046;-68
2022/11/25 03:28:20;;;;;;;20.48;4.00;;;;;;;8.22;91.08;100647.97;5134085;28;20480;-68
2022/11/25 03:30:47;;;;;;;20.77;4.63;;;;;;;8.34;90.79;100638.06;5133769;28;20068;-68
2022/11/25 03:33:14;;;;;;;24.00;4.60;;;;;;;8.32;91.00;100637.38;5115341;28;20043;-68
2022/11/25 03:35:41;;;;;;;20.50;4.40;;;;;;;8.31;91.24;100643.63;5133748;28;20092;-68
2022/11/25 03:38:08;;;;;;;19.27;4.47;;;;;;;8.33;91.00;100652.25;5115686;28;20038;-68
2022/11/25 03:40:36;;;;;;;20.00;4.50;;;;;;;8.29;90.72;100653.50;5133878;28;20051;-69
2022/11/25 03:43:03;;;;;;;18.33;4.15;;;;;;;8.34;91.31;100650.44;5133363;28;20077;-68
2022/11/25 03:45:30;;;;;;;27.27;4.40;;;;;;;8.38;91.09;100668.50;5133939;28;20488;-68
2022/11/25 03:47:59;;;;;;;27.55;4.80;;;;;;;8.34;90.89;100672.41;5133526;28;20135;-68
2022/11/25 03:50:26;;;;;;;16.95;4.28;;;;;;;8.35;91.38;100674.09;5133859;27;20126;-69
2022/11/25 03:52:53;;;;;;;19.35;4.07;;;;;;;8.40;90.89;100677.16;5137383;27;20093;-68
2022/11/25 03:55:20;;;;;;;24.83;4.50;;;;;;;8.45;91.04;100677.56;5137607;27;20043;-68
2022/11/25 03:57:48;;;;;;;18.90;4.18;;;;;;;8.41;91.01;100683.28;5137036;27;20446;-68
2022/11/25 04:00:16;;;;;;;34.80;4.45;;;;;;;8.50;91.64;100678.97;5137346;27;20074;-68
2022/11/25 04:02:49;;;;;;;23.23;4.68;;;;;;;8.51;92.70;100685.91;5137229;27;20057;-68
2022/11/25 04:05:17;;;;;;;22.35;4.15;;;;;;;8.55;93.07;100684.66;5136595;27;20050;-69
2022/11/25 04:07:45;;;;;;;24.77;4.53;;;;;;;8.42;93.27;100688.44;5136946;27;20040;-68
2022/11/25 04:10:12;;;;;;;22.50;4.32;;;;;;;8.43;93.05;100698.03;5137085;27;20123;-68
2022/11/25 04:12:48;;;;;;;20.10;4.35;;;;;;;8.51;93.14;100692.03;5137263;27;20051;-68
2022/11/25 04:15:18;;;;;;;18.20;4.30;;;;;;;8.54;93.42;100689.13;5136937;27;20047;-68
2022/11/25 04:17:50;;;;;;;24.83;4.78;;;;;;;8.58;93.26;100684.38;5136889;27;20488;-67
2022/11/25 04:20:17;;;;;;;16.40;4.00;;;;;;;8.57;93.86;100688.00;5137153;27;20047;-67
2022/11/25 04:22:50;;;;;;;18.50;4.90;;;;;;;8.36;93.99;100685.50;5136732;27;20047;-68
2022/11/25 04:25:18;;;;;;;20.92;5.32;;;;;;;8.43;93.67;100705.97;5137000;27;20054;-68
2022/11/25 04:27:45;;;;;;;19.05;5.45;;;;;;;8.48;94.98;100697.63;5136564;27;20035;-68
2022/11/25 04:30:15;;;;;;;15.93;5.22;;;;;;;8.54;94.71;100696.22;5136912;27;20046;-68
2022/11/25 04:32:43;;;;;;;25.70;5.28;;;;;;;8.52;94.71;100700.81;5118623;27;20047;-69
2022/11/25 04:35:12;;;;;;;23.83;5.30;;;;;;;8.63;93.74;100698.00;5136669;27;20051;-69
2022/11/25 04:37:42;;;;;;;26.15;5.93;;;;;;;8.62;94.20;100707.75;5136591;27;20035;-68
2022/11/25 04:40:09;;;;;;;21.63;5.18;;;;;;;8.58;94.64;100695.78;5136180;27;20043;-68
2022/11/25 04:42:38;;;;;;;21.13;4.80;;;;;;;8.65;94.86;100704.81;5136461;27;20124;-68
2022/11/25 04:45:15;;;;;;;27.02;6.25;;;;;;;8.65;93.06;100706.63;5136349;27;20504;-68
2022/11/25 04:47:52;;;;;;;27.80;5.10;;;;;;;8.52;94.00;100709.56;5136463;27;20058;-68
2022/11/25 04:50:20;;;;;;;24.98;5.68;;;;;;;8.67;93.82;100714.44;5136263;27;20053;-68
2022/11/25 04:53:07;;;;;;;23.50;4.60;;;;;;;8.64;94.35;100708.44;5136250;27;20085;-68
2022/11/25 04:55:34;;;;;;;24.80;5.03;;;;;;;8.70;94.49;100709.69;5136281;27;20126;-67
2022/11/25 04:58:05;;;;;;;27.35;4.70;;;;;;;8.65;93.57;100711.91;5136556;27;20488;-68
2022/11/25 05:00:33;;;;;;;21.27;4.97;;;;;;;8.55;93.85;100725.16;5136072;27;20039;-68
2022/11/25 05:03:01;;;;;;;21.80;5.05;;;;;;;8.64;94.28;100726.97;5135899;27;20059;-67
2022/11/25 05:05:29;;;;;;;21.10;4.55;;;;;;;8.68;95.25;100716.06;5135525;27;20066;-67
2022/11/25 05:08:00;;;;;;;25.02;5.13;;;;;;;8.70;95.85;100728.19;5135489;27;20110;-68
2022/11/25 05:10:28;;;;;;;21.20;5.00;;;;;;;8.64;96.41;100726.09;5135766;27;20567;-67
2022/11/25 05:12:56;;;;;;;25.55;5.22;;;;;;;8.57;97.00;100730.31;5135888;27;20039;-67
2022/11/25 05:15:23;;;;;;;26.80;5.63;;;;;;;8.51;97.82;100728.22;5135944;27;20043;-67
2022/11/25 05:17:49;;;;;;;27.63;5.90;;;;;;;8.47;98.55;100743.53;5135302;27;20503;-67
2022/11/25 05:20:26;;;;;;;19.58;4.90;;;;;;;8.52;99.20;100737.84;5112934;27;20069;-67
2022/11/25 05:22:53;;;;;;;22.75;5.03;;;;;;;8.53;99.14;100742.13;5135614;27;20119;-68
2022/11/25 05:25:23;;;;;;;23.05;4.78;;;;;;;8.55;99.40;100741.03;5135607;27;20122;-67
2022/11/25 05:28:05;;;;;;;28.17;5.55;;;;;;;8.41;99.24;100742.25;5135346;27;20092;-68
2022/11/25 05:30:32;;;;;;;21.08;4.53;;;;;;;8.47;99.70;100753.28;5117238;27;20054;-67
2022/11/25 05:32:59;;;;;;;24.73;5.57;;;;;;;8.38;100.00;100752.28;5135406;27;20510;-67
2022/11/25 05:35:26;;;;;;;28.85;5.85;;;;;;;8.47;100.00;100748.00;5135121;27;20479;-67
2022/11/25 05:37:53;;;;;;;23.83;5.70;;;;;;;8.48;100.00;100752.28;5117163;27;20507;-68
2022/11/25 05:40:19;;;;;;;27.88;5.72;;;;;;;8.48;100.00;100757.56;5135443;27;20047;-67
2022/11/25 05:43:06;;;;;;;28.08;6.32;;;;;;;8.50;100.00;100750.38;5105719;27;20051;-68
2022/11/25 05:45:38;;;;;;;20.80;5.10;;;;;;;8.41;100.00;100758.13;5135515;27;20512;-67
2022/11/25 05:48:07;;;;;;;29.73;6.38;;;;;;;8.32;100.00;100755.47;5134836;27;20039;-68
2022/11/25 05:50:36;;;;;;;32.35;5.65;;;;;;;8.35;100.00;100758.69;5135073;27;20043;-67
2022/11/25 05:53:16;;;;;;;19.77;5.78;;;;;;;8.39;100.00;100761.88;5135034;27;20055;-67
2022/11/25 05:55:43;;;;;;;30.55;5.68;;;;;;;8.38;100.00;100763.66;5135056;27;20047;-67
2022/11/25 05:58:23;;;;;;;23.85;5.28;;;;;;;8.40;100.00;100761.75;5116327;27;20068;-67
2022/11/25 06:00:54;;;;;;;28.27;5.53;;;;;;;8.25;100.00;100768.41;5135210;27;20058;-67
2022/11/25 06:03:25;;;;;;;23.85;5.43;;;;;;;8.30;100.00;100768.00;5134651;27;20068;-67
2022/11/25 06:05:54;;;;;;;27.90;5.68;;;;;;;8.32;100.00;100769.53;5134137;27;20484;-67
2022/11/25 06:08:22;;;;;;;24.85;5.88;;;;;;;8.39;100.00;100781.22;5134850;27;20039;-68
2022/11/25 06:10:48;;;;;;;27.30;5.40;;;;;;;8.36;100.00;100776.19;5134705;27;20491;-67
2022/11/25 06:13:15;;;;;;;24.92;5.18;;;;;;;8.37;100.00;100788.44;5134652;27;20143;-67
2022/11/25 06:15:43;;;;;;;25.25;5.18;;;;;;;8.38;100.00;100784.00;5134479;27;20070;-67
2022/11/25 06:18:15;;;;;;;25.55;5.95;;;;;;;8.33;100.00;100780.91;5134466;27;20114;-67
2022/11/25 06:20:42;;;;;;;27.92;5.68;;;;;;;8.35;100.00;100793.03;5134297;27;20104;-68
2022/11/25 06:23:09;;;;;;;26.50;5.15;;;;;;;8.30;100.00;100791.78;5134649;27;20043;-68
2022/11/25 06:25:37;;;;;;;21.50;5.60;;;;;;;8.33;100.00;100795.00;5134534;27;20050;-68
2022/11/25 06:28:05;;;;;;;23.95;5.30;;;;;;;8.37;100.00;100795.56;5134409;27;20043;-68
2022/11/25 06:30:38;;;;;;;28.08;5.47;;;;;;;8.24;100.00;100796.66;5117017;27;20404;-68
2022/11/25 06:33:13;;;;;;;25.25;4.97;;;;;;;8.23;100.00;100807.34;5134209;27;20492;-67
2022/11/25 06:35:42;;;;;;;22.98;5.13;;;;;;;8.20;100.00;100797.88;5134536;27;20051;-67
2022/11/25 06:38:10;;;;;;;29.13;5.28;;;;;;;8.28;100.00;100807.78;5134270;27;20472;-68
2022/11/25 06:40:36;;;;;;;17.98;5.05;;;;;;;8.35;100.00;100814.19;5133964;27;20043;-67
2022/11/25 06:43:03;;;;;;;25.98;5.35;;;;;;;8.35;100.00;100814.19;5133536;27;20461;-68
2022/11/25 06:45:31;;;;;;;31.90;6.53;;;;;;;8.34;100.00;100814.31;5133803;27;20064;-69
2022/11/25 06:47:57;;;;;;;27.15;5.38;;;;;;;8.38;100.00;100813.91;5133790;28;20506;-68
2022/11/25 06:50:24;;;;;;;22.90;5.72;;;;;;;8.37;100.00;100816.69;5115362;28;20488;-68
2022/11/25 06:52:51;;;;;;;28.48;6.07;;;;;;;8.40;100.00;100822.56;5134136;28;20456;-68
2022/11/25 06:55:17;;;;;;;18.33;5.20;;;;;;;8.39;100.00;100826.16;5133479;28;20440;-68
2022/11/25 06:57:44;;;;;;;24.02;6.03;;;;;;;8.24;100.00;100825.72;5133965;28;20042;-68
2022/11/25 07:00:11;;;;;;;20.90;5.72;;;;;;;8.20;100.00;100834.03;5116228;28;20044;-68
2022/11/25 07:02:38;;;;;;;22.05;5.80;;;;;;;8.23;100.00;100831.13;5133686;28;20048;-68
2022/11/25 07:05:08;;;;;;;24.75;6.50;;;;;;;8.18;100.00;100844.75;5133776;28;20051;-68
2022/11/25 07:07:36;;;;;;;28.38;5.82;;;;;;;8.15;100.00;100839.75;5130176;28;20054;-68
2022/11/25 07:10:04;;;;;;;27.58;5.80;;;;;;;8.06;100.00;100830.81;5133992;28;20058;-68
2022/11/25 07:12:31;;;;;;;23.80;5.25;;;;;;;8.06;100.00;100840.56;5133396;28;20039;-68
2022/11/25 07:14:57;;;;;;;20.10;6.07;;;;;;;8.02;100.00;100844.44;5134225;28;20492;-68
2022/11/25 07:17:24;;;;;;;24.40;6.55;;;;;;;7.91;100.00;100849.81;5133519;28;20043;-67
2022/11/25 07:19:51;;;;;;;20.95;5.82;;;;;;;7.83;100.00;100848.69;5134058;28;20054;-68
2022/11/25 07:22:17;;;;;;;26.27;5.88;;;;;;;7.91;100.00;100852.47;5120247;28;20043;-69
2022/11/25 07:24:44;;;;;;;25.15;5.80;;;;;;;7.80;100.00;100851.59;5133854;27;20053;-68
2022/11/25 07:27:10;;;;;;;22.85;6.03;;;;;;;7.77;100.00;100859.78;5136961;27;20092;-68
2022/11/25 07:29:37;;;;;;;22.17;5.43;;;;;;;7.79;100.00;100870.22;5137467;27;20043;-68
2022/11/25 07:32:24;;;;;;;27.05;6.43;;;;;;;7.73;100.00;100860.19;5122699;27;20480;-68
2022/11/25 07:34:50;;;;;;;23.67;5.20;;;;;;;7.73;100.00;100873.38;5137437;27;20043;-68
2022/11/25 07:37:17;;;;;;;28.27;6.07;;;;;;;7.65;100.00;100881.97;5137527;27;20066;-68
2022/11/25 07:39:44;;;;;;;24.33;5.43;;;;;;;7.63;100.00;100882.09;5137495;27;20088;-69
2022/11/25 07:42:10;;;;;;;22.88;6.00;;;;;;;7.72;100.00;100887.56;5119131;27;20455;-68
2022/11/25 07:44:37;;;;;;;24.38;5.47;;;;;;;7.72;100.00;100891.03;5137136;27;20055;-67
2022/11/25 07:47:24;;;;;;;19.20;5.75;;;;;;;7.62;100.00;100898.06;5137012;27;20039;-68
2022/11/25 07:49:51;;;;;;;29.10;5.95;;;;;;;7.64;100.00;100906.69;5137244;27;20039;-68
2022/11/25 07:52:19;;;;;;;22.30;6.13;;;;;;;7.60;100.00;100908.75;5137422;27;20442;-68
2022/11/25 07:54:45;;;;;;;24.90;6.43;;;;;;;7.70;100.00;100911.47;5137548;27;20046;-68
2022/11/25 07:57:12;;;;;;;27.35;5.90;;;;;;;7.74;100.00;100912.03;5137508;27;20553;-68
2022/11/25 07:59:40;;;;;;;27.95;6.10;;;;;;;7.60;100.00;100914.03;5137273;27;20043;-68
2022/11/25 08:02:09;;;;;;;21.77;5.55;;;;;;;7.71;100.00;100920.22;5136982;27;20100;-68
2022/11/25 08:04:36;;;;;;;25.17;7.05;;;;;;;7.77;100.00;100922.34;5118583;27;20118;-68
2022/11/25 08:07:02;;;;;;;20.23;5.90;;;;;;;7.71;100.00;100914.94;5136573;27;20047;-67
2022/11/25 08:09:29;;;;;;;23.95;6.22;;;;;;;7.74;100.00;100918.16;5136646;27;20031;-67
2022/11/25 08:11:57;;;;;;;20.90;6.03;;;;;;;7.70;100.00;100927.31;5127197;27;20043;-68
2022/11/25 08:14:24;;;;;;;26.52;6.10;;;;;;;7.71;100.00;100928.97;5123485;27;20091;-66
2022/11/25 08:16:51;;;;;;;25.77;6.38;;;;;;;7.70;100.00;100937.88;5122366;27;20051;-67
2022/11/25 08:19:18;;;;;;;22.90;5.93;;;;;;;7.68;100.00;100948.56;5115249;27;20042;-67
2022/11/25 08:21:47;;;;;;;23.95;5.90;;;;;;;7.81;100.00;100947.53;5114541;27;20048;-66
2022/11/25 08:24:18;;;;;;;25.88;6.63;;;;;;;7.80;100.00;100949.31;5111990;27;20047;-67
2022/11/25 08:26:45;;;;;;;384.23;188.87;;;;;;;7.92;100.00;100959.81;5121026;27;20519;-67
2022/11/25 08:29:14;;;;;;;30.35;8.98;;;;;;;7.98;100.00;100956.63;5133053;27;20052;-66
2022/11/25 08:31:41;;;;;;;26.52;7.28;;;;;;;7.94;100.00;100961.34;5128977;27;20044;-67
2022/11/25 08:34:16;;;;;;;37.03;7.05;;;;;;;7.99;100.00;100969.72;5080601;27;20047;-67
2022/11/25 08:36:43;;;;;;;24.55;6.45;;;;;;;7.97;100.00;100970.81;5106831;27;20043;-67
2022/11/25 08:39:13;;;;;;;21.35;6.30;;;;;;;7.93;100.00;100966.75;5130073;27;20130;-67
2022/11/25 08:41:48;;;;;;;26.13;6.45;;;;;;;8.00;100.00;100970.53;5118698;27;20035;-68
2022/11/25 08:44:15;;;;;;;24.05;6.22;;;;;;;7.98;100.00;100977.78;5127364;27;20043;-67
2022/11/25 08:46:42;;;;;;;23.98;6.90;;;;;;;8.01;100.00;100975.69;5126849;27;20050;-68
2022/11/25 08:49:10;;;;;;;19.55;6.35;;;;;;;7.97;100.00;100974.28;5129364;27;20035;-67
2022/11/25 08:51:37;;;;;;;25.40;6.93;;;;;;;8.03;100.00;100965.00;5117884;27;20600;-67
2022/11/25 08:54:06;;;;;;;23.42;7.22;;;;;;;8.12;100.00;100981.88;5108492;27;20498;-67
2022/11/25 08:56:33;;;;;;;26.25;7.50;;;;;;;8.08;100.00;100971.56;5107003;27;20411;-67
2022/11/25 08:59:00;;;;;;;27.50;8.13;;;;;;;8.12;100.00;100980.06;5129844;27;20038;-67
2022/11/25 09:01:27;;;;;;;26.45;7.38;;;;;;;8.19;100.00;100978.56;5112456;27;20397;-67
2022/11/25 09:03:55;;;;;;;22.20;7.03;;;;;;;8.16;100.00;100983.28;5126732;27;20047;-68
2022/11/25 09:06:25;;;;;;;28.38;6.80;;;;;;;8.23;100.00;100979.13;5110890;27;20035;-68
2022/11/25 09:08:55;;;;;;;29.50;7.18;;;;;;;8.24;100.00;100986.09;5098750;27;20042;-68
2022/11/25 09:11:22;;;;;;;21.33;6.47;;;;;;;8.23;100.00;100995.00;5125725;27;20043;-68
2022/11/25 09:13:50;;;;;;;27.90;7.15;;;;;;;8.31;100.00;100994.31;5132940;27;20387;-67
2022/11/25 09:16:17;;;;;;;26.52;6.30;;;;;;;8.39;100.00;101003.28;5140610;27;20050;-67
2022/11/25 09:18:44;;;;;;;23.65;6.88;;;;;;;8.46;100.00;101000.97;5131228;27;20034;-67
2022/11/25 09:21:14;;;;;;;19.88;6.88;;;;;;;8.55;100.00;101007.25;5135868;27;20042;-68
2022/11/25 09:23:41;;;;;;;26.25;6.63;;;;;;;8.64;100.00;101012.56;5121237;27;20039;-68
2022/11/25 09:26:22;;;;;;;26.30;6.47;;;;;;;8.60;100.00;101018.25;5101394;27;20039;-68
2022/11/25 09:28:49;;;;;;;27.45;6.22;;;;;;;8.81;100.00;101023.47;5105287;27;20067;-67
2022/11/25 09:31:16;;;;;;;27.40;6.05;;;;;;;8.91;100.00;101028.78;5112801;27;20035;-66
2022/11/25 09:33:44;;;;;;;31.20;6.45;;;;;;;9.11;100.00;101022.53;5126560;27;20039;-69
2022/11/25 09:36:13;;;;;;;19.75;5.70;;;;;;;9.32;99.68;101026.91;5078600;27;20035;-67
2022/11/25 09:38:43;;;;;;;25.25;6.30;;;;;;;9.28;99.33;101028.13;5117242;27;20039;-67
2022/11/25 09:48:09;;;;;;;22.85;5.53;;;;;;;9.35;98.75;101034.53;5129269;27;20130;-67
2022/11/25 09:51:16;;;;;;;22.27;5.32;;;;;;;9.50;97.76;101041.09;5118791;27;20039;-67
2022/11/25 09:53:50;;;;;;;21.45;5.10;;;;;;;9.67;96.20;101046.69;5113421;27;20472;-67
2022/11/25 09:56:40;;;;;;;17.50;4.90;;;;;;;9.56;96.04;101048.47;5132210;27;20447;-67
2022/11/25 09:59:19;;;;;;;16.38;4.25;;;;;;;9.72;94.77;101061.16;5127127;27;20046;-67
2022/11/25 10:01:53;;;;;;;16.52;3.97;;;;;;;9.87;94.95;101058.09;5133333;27;20054;-67
2022/11/25 10:04:29;;;;;;;13.23;4.18;;;;;;;10.18;93.01;101058.72;5121192;27;20044;-67
2022/11/25 10:07:01;;;;;;;26.38;4.22;;;;;;;10.36;93.12;101077.41;5117499;27;20048;-67
2022/11/25 10:09:32;;;;;;;19.10;3.40;;;;;;;10.50;91.25;101068.97;5125221;27;20039;-68
2022/11/25 10:12:05;;;;;;;21.27;4.25;;;;;;;10.38;90.46;101072.78;5130785;27;20510;-67
2022/11/25 10:14:46;;;;;;;22.42;3.88;;;;;;;10.41;90.10;101063.72;5126772;27;20047;-67
2022/11/25 10:17:39;;;;;;;18.27;3.60;;;;;;;10.26;89.76;101076.53;5108792;27;20600;-68
2022/11/25 10:20:18;;;;;;;11.70;3.13;;;;;;;10.36;88.49;101083.53;5128580;27;20085;-68
2022/11/25 10:22:48;;;;;;;18.17;3.40;;;;;;;10.48;88.76;101088.69;5106979;27;20438;-67
2022/11/25 10:25:37;;;;;;;19.23;3.88;;;;;;;10.45;88.79;101084.50;5113932;27;20107;-68
2022/11/25 10:28:17;;;;;;;26.33;4.30;;;;;;;10.61;87.88;101091.84;5125380;27;20067;-67
2022/11/25 10:31:09;;;;;;;17.88;3.50;;;;;;;10.62;86.65;101090.84;5101126;27;20127;-68
2022/11/25 10:33:43;;;;;;;17.27;3.80;;;;;;;10.53;86.96;101089.06;5125655;27;20035;-68
2022/11/25 10:36:35;;;;;;;23.70;4.45;;;;;;;10.51;86.91;101089.22;5130765;27;20115;-68
2022/11/25 10:39:12;;;;;;;15.23;3.40;;;;;;;10.51;87.03;101104.28;5114615;27;20128;-67
2022/11/25 10:41:49;;;;;;;20.92;3.53;;;;;;;10.67;85.08;101099.19;5128478;27;20051;-68
2022/11/25 10:44:27;;;;;;;20.80;3.58;;;;;;;10.91;85.25;101100.50;5098557;27;20523;-68
2022/11/25 10:47:11;;;;;;;25.65;4.20;;;;;;;11.87;81.27;101100.81;5124633;27;20039;-68
2022/11/25 10:50:03;;;;;;;20.85;4.28;;;;;;;12.43;77.42;101093.41;5126941;27;20039;-68
2022/11/25 10:52:35;;;;;;;18.90;3.40;;;;;;;14.40;69.58;101103.63;5116951;27;20075;-68
2022/11/25 10:55:24;;;;;;;24.95;4.07;;;;;;;14.58;66.07;101117.59;5124909;28;20065;-68
2022/11/25 10:57:52;;;;;;;16.50;3.38;;;;;;;13.12;72.25;101113.88;5132692;27;20407;-67
2022/11/25 11:00:36;;;;;;;17.08;3.97;;;;;;;14.62;68.43;101115.44;5126056;27;20091;-68
2022/11/25 11:03:15;;;;;;;30.60;4.22;;;;;;;13.74;69.18;101114.34;5131073;27;20051;-68
2022/11/25 11:05:46;;;;;;;25.90;4.20;;;;;;;13.42;71.02;101113.31;5130014;27;20499;-70
2022/11/25 11:08:22;;;;;;;21.42;3.38;;;;;;;15.22;64.22;101119.34;5129095;27;20500;-68
2022/11/25 11:11:18;;;;;;;16.25;3.38;;;;;;;14.56;66.38;101122.25;5119306;27;20051;-68
2022/11/25 11:13:46;;;;;;;23.65;3.83;;;;;;;13.37;70.33;101117.44;5130116;27;20043;-68
2022/11/25 11:16:26;;;;;;;21.63;3.83;;;;;;;13.16;71.95;101128.53;5112186;27;20047;-68
2022/11/25 11:18:55;;;;;;;17.63;3.22;;;;;;;12.70;74.04;101133.28;5132760;27;20039;-68
2022/11/25 11:21:30;;;;;;;33.03;4.13;;;;;;;14.71;67.06;101138.44;5127189;27;20043;-68
2022/11/25 11:23:58;;;;;;;21.77;3.70;;;;;;;15.55;64.42;101137.88;5123102;27;20445;-68
2022/11/25 11:26:30;;;;;;;29.85;4.22;;;;;;;13.84;68.23;101135.50;5115468;27;20043;-68
2022/11/25 11:29:12;;;;;;;21.33;3.95;;;;;;;13.22;69.88;101143.84;5127831;27;20039;-68
2022/11/25 11:31:46;;;;;;;26.05;3.72;;;;;;;13.28;70.63;101135.22;5111948;27;20058;-68
2022/11/25 11:34:39;;;;;;;19.83;5.00;;;;;;;12.95;71.77;101127.13;5092550;27;20647;-68
2022/11/25 11:37:28;;;;;;;21.75;4.00;;;;;;;12.84;72.23;101140.69;5119109;27;20035;-67
2022/11/25 11:40:20;;;;;;;22.65;3.83;;;;;;;12.36;74.18;101140.25;5132045;27;20708;-67
2022/11/25 11:43:27;;;;;;;23.45;3.58;;;;;;;12.01;75.79;101135.84;5121651;27;20050;-68
2022/11/25 11:46:20;;;;;;;21.55;4.53;;;;;;;11.79;76.25;101147.72;5107202;27;20047;-69
2022/11/25 11:49:05;;;;;;;19.05;3.30;;;;;;;12.26;74.52;101145.69;5135997;27;20096;-68
2022/11/25 11:51:44;;;;;;;23.10;4.15;;;;;;;12.54;73.27;101144.72;5103980;27;20039;-68